createdAt,value
2023-02-22T00:02:10.261Z,101025.39
2023-02-22T00:04:43.530Z,101031.11
2023-02-22T00:07:15.893Z,101032.13
2023-02-22T00:09:47.934Z,101035.94
2023-02-22T00:12:23.257Z,101039.94
2023-02-22T00:14:59.118Z,101044.75
2023-02-22T00:17:34.658Z,101042.86
2023-02-22T00:20:08.593Z,101047.17
2023-02-22T00:22:40.593Z,101048.77
2023-02-22T00:25:14.746Z,101046.88
2023-02-22T00:27:53.092Z,101049.93
2023-02-22T00:30:29.134Z,101053.15
2023-02-22T00:33:02.472Z,101056.17
2023-02-22T00:35:34.963Z,101058.27
2023-02-22T00:38:13.004Z,101061.52
2023-02-22T00:40:55.992Z,101061.56
2023-02-22T00:43:30.098Z,101063.99
2023-02-22T00:46:03.750Z,101064.90
2023-02-22T00:48:45.710Z,101067.71
2023-02-22T00:51:17.748Z,101071.52
2023-02-22T00:53:51.504Z,101076.62
2023-02-22T00:56:25.760Z,101080.51
2023-02-22T00:58:59.987Z,101084.20
2023-02-22T01:01:32.037Z,101089.09
2023-02-22T01:04:05.702Z,101089.52
2023-02-22T01:06:40.009Z,101090.42
2023-02-22T01:09:13.166Z,101093.77
2023-02-22T01:11:48.914Z,101097.04
2023-02-22T01:14:24.120Z,101100.50
2023-02-22T01:16:59.655Z,101100.48
2023-02-22T01:19:32.508Z,101103.16
2023-02-22T01:22:06.191Z,101103.86
2023-02-22T01:24:39.142Z,101105.30
2023-02-22T01:27:13.512Z,101107.62
2023-02-22T01:29:46.107Z,101111.34
2023-02-22T01:32:20.409Z,101111.98
2023-02-22T01:34:56.381Z,101111.15
2023-02-22T01:37:27.760Z,101112.29
2023-02-22T01:40:02.038Z,101111.77
2023-02-22T01:42:35.748Z,101112.69
2023-02-22T01:45:47.766Z,101118.26
2023-02-22T01:48:28.468Z,101117.91
2023-02-22T01:51:11.285Z,101116.66
2023-02-22T01:53:51.077Z,101117.47
2023-02-22T01:56:25.953Z,101120.83
2023-02-22T01:59:17.858Z,101120.52
2023-02-22T02:01:50.018Z,101125.60
2023-02-22T02:04:26.739Z,101124.83
2023-02-22T02:07:06.246Z,101126.03
2023-02-22T02:09:46.666Z,101131.09
2023-02-22T02:12:25.121Z,101130.77
2023-02-22T02:15:11.793Z,101134.48
2023-02-22T02:17:46.138Z,101133.86
2023-02-22T02:20:26.061Z,101137.00
2023-02-22T02:23:09.496Z,101138.89
2023-02-22T02:26:11.216Z,101141.90
2023-02-22T02:29:12.786Z,101140.10
2023-02-22T02:32:24.116Z,101143.82
2023-02-22T02:35:06.095Z,101143.41
2023-02-22T02:37:57.176Z,101145.09
2023-02-22T02:40:38.539Z,101157.95
2023-02-22T02:43:23.054Z,101159.67
2023-02-22T02:46:02.735Z,101152.98
2023-02-22T02:48:37.792Z,101151.27
2023-02-22T02:51:17.450Z,101154.39
2023-02-22T02:53:52.862Z,101157.15
2023-02-22T02:56:24.590Z,101160.67
2023-02-22T02:58:59.240Z,101167.52
2023-02-22T03:01:50.148Z,101170.42
2023-02-22T03:04:45.867Z,101175.45
2023-02-22T03:07:45.447Z,101178.77
2023-02-22T03:10:39.671Z,101183.41
2023-02-22T03:13:23.038Z,101182.05
2023-02-22T03:16:04.679Z,101184.66
2023-02-22T03:18:47.512Z,101186.89
2023-02-22T03:21:27.598Z,101185.23
2023-02-22T03:24:10.665Z,101192.09
2023-02-22T03:26:48.375Z,101193.38
2023-02-22T03:29:25.195Z,101202.31
2023-02-22T03:32:03.086Z,101204.02
2023-02-22T03:34:43.462Z,101205.17
2023-02-22T03:37:30.211Z,101205.45
2023-02-22T03:40:13.563Z,101204.98
2023-02-22T03:42:54.115Z,101206.17
2023-02-22T03:45:39.324Z,101216.11
2023-02-22T03:48:18.936Z,101222.30
2023-02-22T03:51:12.105Z,101222.71
2023-02-22T03:53:49.133Z,101222.77
2023-02-22T03:56:29.503Z,101222.59
2023-02-22T03:59:02.040Z,101225.92
2023-02-22T04:01:54.290Z,101220.42
2023-02-22T04:04:25.648Z,101225.52
2023-02-22T04:07:09.457Z,101231.98
2023-02-22T04:09:44.218Z,101234.50
2023-02-22T04:12:18.727Z,101235.08
2023-02-22T04:15:10.843Z,101237.94
2023-02-22T04:17:43.268Z,101241.91
2023-02-22T04:20:25.954Z,101243.89
2023-02-22T04:23:08.300Z,101243.18
2023-02-22T04:25:45.136Z,101241.95
2023-02-22T04:28:22.154Z,101246.08
2023-02-22T04:31:14.010Z,101243.79
2023-02-22T04:33:46.715Z,101241.20
2023-02-22T04:36:26.181Z,101241.05
2023-02-22T04:38:58.096Z,101242.61
2023-02-22T04:41:39.413Z,101242.58
2023-02-22T04:44:20.171Z,101244.03
2023-02-22T04:46:53.004Z,101248.09
2023-02-22T04:49:25.762Z,101244.44
2023-02-22T04:52:04.741Z,101247.65
2023-02-22T04:54:43.180Z,101246.30
2023-02-22T04:57:18.269Z,101244.35
2023-02-22T04:59:50.921Z,101245.20
2023-02-22T05:02:24.141Z,101242.89
2023-02-22T05:04:57.960Z,101244.44
2023-02-22T05:07:31.900Z,101244.98
2023-02-22T05:10:05.234Z,101245.74
2023-02-22T05:12:39.751Z,101252.91
2023-02-22T05:15:19.076Z,101260.81
2023-02-22T05:17:52.108Z,101260.42
2023-02-22T05:20:29.086Z,101263.63
2023-02-22T05:23:03.418Z,101271.11
2023-02-22T05:25:35.392Z,101272.79
2023-02-22T05:28:14.159Z,101273.27
2023-02-22T05:30:44.706Z,101276.14
2023-02-22T05:33:18.769Z,101277.92
2023-02-22T05:35:51.534Z,101274.31
2023-02-22T05:38:24.899Z,101274.87
2023-02-22T05:40:58.851Z,101280.15
2023-02-22T05:43:45.953Z,101283.42
2023-02-22T05:46:19.487Z,101283.15
2023-02-22T05:48:53.720Z,101284.23
2023-02-22T05:51:26.992Z,101289.45
2023-02-22T05:54:01.020Z,101293.13
2023-02-22T05:56:39.644Z,101290.39
2023-02-22T05:59:11.436Z,101294.23
2023-02-22T06:01:43.245Z,101298.07
2023-02-22T06:04:14.516Z,101299.00
2023-02-22T06:06:46.393Z,101303.45
2023-02-22T06:09:19.261Z,101309.69
2023-02-22T06:11:54.372Z,101311.48
2023-02-22T06:14:30.367Z,101321.71
2023-02-22T06:17:21.357Z,101326.37
2023-02-22T06:19:59.361Z,101333.87
2023-02-22T06:22:31.198Z,101336.60
2023-02-22T06:25:06.314Z,101343.55
2023-02-22T06:27:40.308Z,101343.16
2023-02-22T06:30:15.365Z,101343.67
2023-02-22T06:32:49.466Z,101350.62
2023-02-22T06:35:22.504Z,101348.30
2023-02-22T06:37:55.350Z,101352.80
2023-02-22T06:40:30.352Z,101358.63
2023-02-22T06:43:02.676Z,101360.44
2023-02-22T06:45:37.013Z,101362.89
2023-02-22T06:48:10.405Z,101364.92
2023-02-22T06:50:45.808Z,101368.05
2023-02-22T06:53:19.170Z,101364.31
2023-02-22T06:55:54.489Z,101366.62
2023-02-22T06:58:28.219Z,101371.48
2023-02-22T07:01:00.859Z,101369.40
2023-02-22T07:03:35.975Z,101368.63
2023-02-22T07:06:11.227Z,101370.19
2023-02-22T07:08:43.594Z,101369.00
2023-02-22T07:11:17.442Z,101376.69
2023-02-22T07:13:49.986Z,101375.48
2023-02-22T07:16:22.603Z,101378.92
2023-02-22T07:18:53.609Z,101382.83
2023-02-22T07:21:26.929Z,101373.46
2023-02-22T07:24:00.053Z,101377.46
2023-02-22T07:26:38.442Z,101378.63
2023-02-22T07:29:20.844Z,101385.84
2023-02-22T07:31:55.274Z,101389.02
2023-02-22T07:34:25.593Z,101392.64
2023-02-22T07:36:57.667Z,101389.77
2023-02-22T07:39:29.208Z,101392.95
2023-02-22T07:42:06.632Z,101393.11
2023-02-22T07:44:43.440Z,101392.06
2023-02-22T07:47:14.940Z,101392.06
2023-02-22T07:49:48.125Z,101394.05
2023-02-22T07:52:20.012Z,101392.84
2023-02-22T07:55:00.450Z,101395.06
2023-02-22T07:57:31.446Z,101399.86
2023-02-22T08:00:07.169Z,101398.72
2023-02-22T08:02:44.582Z,101397.04
2023-02-22T08:05:23.376Z,101398.34
2023-02-22T08:07:54.621Z,101398.51
2023-02-22T08:10:27.674Z,101397.73
2023-02-22T08:13:00.113Z,101400.77
2023-02-22T08:15:35.252Z,101400.96
2023-02-22T08:18:11.003Z,101405.21
2023-02-22T08:20:46.015Z,101409.75
2023-02-22T08:23:22.672Z,101405.91
2023-02-22T08:25:54.061Z,101411.20
2023-02-22T08:28:32.829Z,101416.06
2023-02-22T08:31:08.030Z,101416.98
2023-02-22T08:33:41.688Z,101418.70
2023-02-22T08:36:16.967Z,101420.39
2023-02-22T08:38:49.653Z,101422.65
2023-02-22T08:41:26.246Z,101423.99
2023-02-22T08:44:02.121Z,101426.55
2023-02-22T08:46:34.867Z,101425.58
2023-02-22T08:49:09.074Z,101419.05
2023-02-22T08:51:43.126Z,101422.59
2023-02-22T08:54:17.899Z,101421.59
2023-02-22T08:56:51.099Z,101419.14
2023-02-22T08:59:24.470Z,101420.23
2023-02-22T09:02:02.866Z,101417.33
2023-02-22T09:04:35.331Z,101416.12
2023-02-22T09:07:10.547Z,101416.02
2023-02-22T09:09:44.362Z,101409.98
2023-02-22T09:12:16.488Z,101409.95
2023-02-22T09:14:50.268Z,101412.55
2023-02-22T09:17:25.647Z,101413.31
2023-02-22T09:19:59.811Z,101408.44
2023-02-22T09:22:37.140Z,101414.96
2023-02-22T09:25:16.664Z,101418.47
2023-02-22T09:28:04.648Z,101417.25
2023-02-22T09:30:42.713Z,101418.33
2023-02-22T09:33:17.877Z,101417.56
2023-02-22T09:35:54.960Z,101418.57
2023-02-22T09:38:29.658Z,101423.30
2023-02-22T09:41:15.917Z,101427.33
2023-02-22T09:43:54.880Z,101431.00
2023-02-22T09:46:36.368Z,101431.47
2023-02-22T09:49:21.667Z,101426.40
2023-02-22T09:52:01.390Z,101429.14
2023-02-22T09:54:45.312Z,101430.55
2023-02-22T09:57:27.187Z,101435.45
2023-02-22T10:00:13.075Z,101436.44
2023-02-22T10:02:55.958Z,101437.73
2023-02-22T10:05:34.974Z,101433.09
2023-02-22T10:08:12.239Z,101430.14
2023-02-22T10:11:06.041Z,101428.52
2023-02-22T10:13:51.434Z,101427.27
2023-02-22T10:16:34.244Z,101426.13
2023-02-22T10:19:34.145Z,101423.82
2023-02-22T10:22:20.120Z,101420.04
2023-02-22T10:25:00.896Z,101422.23
2023-02-22T10:27:41.856Z,101422.54
2023-02-22T10:30:25.254Z,101426.00
2023-02-22T10:33:13.235Z,101425.32
2023-02-22T10:35:56.305Z,101424.52
2023-02-22T10:38:32.488Z,101421.39
2023-02-22T10:41:27.444Z,101424.23
2023-02-22T10:44:05.593Z,101422.67
2023-02-22T10:46:40.478Z,101430.11
2023-02-22T10:49:17.673Z,101431.02
2023-02-22T10:51:58.927Z,101432.00
2023-02-22T10:54:37.987Z,101430.00
2023-02-22T10:57:13.064Z,101432.34
2023-02-22T10:59:48.871Z,101431.98
2023-02-22T11:02:24.406Z,101428.73
2023-02-22T11:04:57.963Z,101426.41
2023-02-22T11:07:32.274Z,101428.75
2023-02-22T11:10:08.288Z,101427.83
2023-02-22T11:12:42.379Z,101430.34
2023-02-22T11:15:30.878Z,101430.86
2023-02-22T11:18:03.647Z,101435.13
2023-02-22T11:20:39.835Z,101431.02
2023-02-22T11:23:22.806Z,101431.01
2023-02-22T11:26:05.371Z,101435.06
2023-02-22T11:28:49.650Z,101431.04
2023-02-22T11:31:23.479Z,101433.10
2023-02-22T11:33:59.143Z,101429.77
2023-02-22T11:36:37.980Z,101434.70
2023-02-22T11:39:29.292Z,101431.80
2023-02-22T11:42:22.730Z,101429.50
2023-02-22T11:45:13.492Z,101425.95
2023-02-22T11:48:15.372Z,101422.23
2023-02-22T11:51:05.013Z,101425.24
2023-02-22T11:53:56.265Z,101425.86
2023-02-22T11:56:38.118Z,101428.11
2023-02-22T11:59:23.721Z,101430.37
2023-02-22T12:01:59.688Z,101429.90
2023-02-22T12:05:04.492Z,101427.41
2023-02-22T12:07:49.058Z,101429.64
2023-02-22T12:10:36.638Z,101428.35
2023-02-22T12:13:27.253Z,101426.59
2023-02-22T12:16:07.357Z,101425.56
2023-02-22T12:18:44.623Z,101428.09
2023-02-22T12:21:23.424Z,101432.56
2023-02-22T12:24:05.060Z,101434.61
2023-02-22T12:26:42.425Z,101429.79
2023-02-22T12:29:22.009Z,101423.69
2023-02-22T12:31:59.424Z,101422.66
2023-02-22T12:34:36.965Z,101422.06
2023-02-22T12:37:16.687Z,101430.12
2023-02-22T12:40:00.711Z,101431.95
2023-02-22T12:42:49.293Z,101428.73
2023-02-22T12:45:34.853Z,101434.89
2023-02-22T12:48:42.759Z,101435.79
2023-02-22T12:51:27.400Z,101430.48
2023-02-22T12:54:11.881Z,101436.89
2023-02-22T12:56:52.535Z,101441.94
2023-02-22T12:59:35.752Z,101441.21
2023-02-22T13:02:18.992Z,101442.23
2023-02-22T13:04:50.995Z,101444.05
2023-02-22T13:07:36.283Z,101450.19
2023-02-22T13:10:26.710Z,101446.05
2023-02-22T13:13:05.807Z,101445.94
2023-02-22T13:15:49.131Z,101443.16
2023-02-22T13:18:34.072Z,101449.12
2023-02-22T13:21:22.640Z,101451.20
2023-02-22T13:24:04.893Z,101454.13
2023-02-22T13:26:46.668Z,101450.16
2023-02-22T13:29:29.576Z,101452.58
2023-02-22T13:32:24.263Z,101450.23
2023-02-22T13:35:26.643Z,101454.59
2023-02-22T13:38:31.071Z,101449.06
2023-02-22T13:41:24.383Z,101453.06
2023-02-22T13:44:09.178Z,101447.83
2023-02-22T13:47:21.641Z,101453.02
2023-02-22T13:50:28.336Z,101454.48
2023-02-22T13:53:12.800Z,101450.08
2023-02-22T13:55:57.039Z,101448.91
2023-02-22T13:58:29.112Z,101452.27
2023-02-22T14:01:01.521Z,101447.92
2023-02-22T14:03:40.120Z,101450.17
2023-02-22T14:06:33.921Z,101448.38
2023-02-22T14:09:20.108Z,101449.95
2023-02-22T14:11:58.595Z,101450.79
2023-02-22T14:14:30.553Z,101449.48
2023-02-22T14:17:30.239Z,101452.31
2023-02-22T14:20:20.079Z,101453.54
2023-02-22T14:22:53.301Z,101446.70
2023-02-22T14:25:44.210Z,101447.50
2023-02-22T14:28:49.739Z,101449.02
2023-02-22T14:31:36.443Z,101448.09
2023-02-22T14:34:16.853Z,101449.02
2023-02-22T14:37:05.682Z,101454.23
2023-02-22T14:39:43.237Z,101453.07
2023-02-22T14:42:23.199Z,101452.16
2023-02-22T14:45:00.854Z,101452.46
2023-02-22T14:47:44.126Z,101454.17
2023-02-22T14:50:24.196Z,101452.04
2023-02-22T14:53:06.506Z,101452.22
2023-02-22T14:55:44.773Z,101454.52
2023-02-22T14:58:20.704Z,101456.02
2023-02-22T15:00:56.525Z,101456.92
2023-02-22T15:03:37.649Z,101452.15
2023-02-22T15:06:19.112Z,101451.60
2023-02-22T15:09:06.420Z,101453.23
2023-02-22T15:11:40.981Z,101455.02
2023-02-22T15:14:26.296Z,101451.54
2023-02-22T15:17:08.874Z,101451.95
2023-02-22T15:19:48.905Z,101448.70
2023-02-22T15:22:34.919Z,101451.73
2023-02-22T15:25:13.772Z,101459.11
2023-02-22T15:27:50.735Z,101465.05
2023-02-22T15:30:27.703Z,101467.13
2023-02-22T15:33:12.082Z,101468.40
2023-02-22T15:35:45.266Z,101471.15
2023-02-22T15:38:26.866Z,101472.73
2023-02-22T15:41:07.969Z,101473.43
2023-02-22T15:43:40.496Z,101474.75
2023-02-22T15:46:12.355Z,101473.65
2023-02-22T15:48:46.042Z,101475.70
2023-02-22T15:51:18.989Z,101476.90
2023-02-22T15:53:52.792Z,101476.44
2023-02-22T15:56:30.341Z,101476.07
2023-02-22T15:59:07.870Z,101477.02
2023-02-22T16:01:44.227Z,101479.05
2023-02-22T16:04:22.823Z,101476.47
2023-02-22T16:07:07.452Z,101479.13
2023-02-22T16:09:40.309Z,101477.31
2023-02-22T16:12:24.539Z,101476.92
2023-02-22T16:14:57.550Z,101483.33
2023-02-22T16:17:36.258Z,101491.41
2023-02-22T16:20:36.970Z,101494.73
2023-02-22T16:23:26.545Z,101492.10
2023-02-22T16:26:20.154Z,101492.10
2023-02-22T16:28:54.721Z,101501.67
2023-02-22T16:31:29.550Z,101507.33
2023-02-22T16:34:05.654Z,101506.37
2023-02-22T16:36:42.694Z,101508.84
2023-02-22T16:39:20.393Z,101511.27
2023-02-22T16:41:55.335Z,101513.01
2023-02-22T16:44:28.799Z,101514.48
2023-02-22T16:47:01.622Z,101513.55
2023-02-22T16:49:37.509Z,101517.36
2023-02-22T16:52:13.346Z,101519.42
2023-02-22T16:54:47.358Z,101522.49
2023-02-22T16:57:22.317Z,101526.20
2023-02-22T16:59:55.711Z,101521.56
2023-02-22T17:02:28.192Z,101520.27
2023-02-22T17:05:01.511Z,101518.33
2023-02-22T17:07:34.086Z,101518.45
2023-02-22T17:10:10.024Z,101515.54
2023-02-22T17:12:43.466Z,101513.88
2023-02-22T17:15:23.264Z,101515.96
2023-02-22T17:17:55.610Z,101512.17
2023-02-22T17:20:31.363Z,101507.01
2023-02-22T17:23:09.128Z,101513.24
2023-02-22T17:25:44.230Z,101514.04
2023-02-22T17:28:18.454Z,101510.30
2023-02-22T17:30:51.554Z,101517.05
2023-02-22T17:33:29.872Z,101520.08
2023-02-22T17:36:03.190Z,101520.55
2023-02-22T17:38:41.056Z,101521.65
2023-02-22T17:41:17.088Z,101527.75
2023-02-22T17:43:57.489Z,101532.89
2023-02-22T17:46:30.800Z,101534.23
2023-02-22T17:49:05.930Z,101529.67
2023-02-22T17:51:42.671Z,101527.44
2023-02-22T17:54:19.611Z,101532.33
2023-02-22T17:56:57.593Z,101531.87
2023-02-22T17:59:31.010Z,101529.02
2023-02-22T18:02:14.016Z,101527.84
2023-02-22T18:04:48.156Z,101530.36
2023-02-22T18:07:23.091Z,101529.88
2023-02-22T18:09:56.479Z,101532.05
2023-02-22T18:12:32.298Z,101530.55
2023-02-22T18:15:04.723Z,101530.84
2023-02-22T18:17:53.749Z,101532.49
2023-02-22T18:20:30.671Z,101530.52
2023-02-22T18:23:07.116Z,101530.94
2023-02-22T18:26:10.723Z,101529.84
2023-02-22T18:28:45.417Z,101529.33
2023-02-22T18:31:23.867Z,101523.44
2023-02-22T18:34:05.128Z,101520.67
2023-02-22T18:36:56.663Z,101520.40
2023-02-22T18:39:33.858Z,101519.92
2023-02-22T18:42:06.001Z,101515.66
2023-02-22T18:44:42.112Z,101517.14
2023-02-22T18:47:15.664Z,101516.38
2023-02-22T18:49:49.586Z,101518.97
2023-02-22T18:52:23.302Z,101513.98
2023-02-22T18:55:02.309Z,101512.02
2023-02-22T18:57:37.323Z,101509.31
2023-02-22T19:00:13.865Z,101512.35
2023-02-22T19:02:47.875Z,101512.56
2023-02-22T19:05:29.352Z,101508.07
2023-02-22T19:08:04.165Z,101511.08
2023-02-22T19:10:51.131Z,101511.16
2023-02-22T19:13:23.783Z,101512.37
2023-02-22T19:16:04.225Z,101511.22
2023-02-22T19:18:38.085Z,101511.25
2023-02-22T19:21:14.224Z,101513.02
2023-02-22T19:23:48.919Z,101511.20
2023-02-22T19:26:24.526Z,101515.38
2023-02-22T19:29:04.278Z,101516.41
2023-02-22T19:31:40.200Z,101516.04
2023-02-22T19:34:15.899Z,101517.78
2023-02-22T19:36:53.678Z,101516.86
2023-02-22T19:39:28.902Z,101516.82
2023-02-22T19:42:01.393Z,101515.70
2023-02-22T19:44:35.272Z,101517.94
2023-02-22T19:47:09.574Z,101520.38
2023-02-22T19:49:49.149Z,101519.84
2023-02-22T19:52:27.655Z,101515.39
2023-02-22T19:55:05.251Z,101512.17
2023-02-22T19:57:47.945Z,101513.67
2023-02-22T20:00:35.370Z,101507.80
2023-02-22T20:03:08.653Z,101508.42
2023-02-22T20:05:43.460Z,101507.71
2023-02-22T20:08:15.354Z,101511.31
2023-02-22T20:11:07.148Z,101506.80
2023-02-22T20:13:43.179Z,101508.60
2023-02-22T20:16:16.520Z,101512.00
2023-02-22T20:18:53.910Z,101515.29
2023-02-22T20:21:30.188Z,101511.50
2023-02-22T20:24:18.874Z,101509.23
2023-02-22T20:26:55.995Z,101505.27
2023-02-22T20:29:29.974Z,101505.58
2023-02-22T20:32:19.854Z,101508.46
2023-02-22T20:34:53.695Z,101502.68
2023-02-22T20:37:35.243Z,101503.13
2023-02-22T20:40:11.283Z,101508.28
2023-02-22T20:42:44.484Z,101512.56
2023-02-22T20:45:19.591Z,101508.58
2023-02-22T20:47:55.429Z,101511.42
2023-02-22T20:50:31.854Z,101510.88
2023-02-22T20:53:21.267Z,101512.13
2023-02-22T20:55:55.877Z,101507.00
2023-02-22T20:58:32.897Z,101506.06
2023-02-22T21:01:12.166Z,101505.85
2023-02-22T21:03:44.464Z,101507.90
2023-02-22T21:06:22.914Z,101510.80
2023-02-22T21:08:58.101Z,101510.45
2023-02-22T21:11:36.059Z,101511.20
2023-02-22T21:14:19.422Z,101514.80
2023-02-22T21:16:55.716Z,101508.27
2023-02-22T21:19:33.676Z,101508.11
2023-02-22T21:22:07.762Z,101509.56
2023-02-22T21:24:40.217Z,101512.23
2023-02-22T21:27:13.404Z,101508.98
2023-02-22T21:29:52.037Z,101506.71
2023-02-22T21:32:26.492Z,101506.59
2023-02-22T21:34:58.370Z,101504.05
2023-02-22T21:37:35.427Z,101505.89
2023-02-22T21:40:18.670Z,101503.89
2023-02-22T21:42:53.035Z,101507.05
2023-02-22T21:45:27.822Z,101505.05
2023-02-22T21:48:02.371Z,101504.27
2023-02-22T21:50:37.182Z,101503.19
2023-02-22T21:53:19.087Z,101505.58
2023-02-22T21:55:54.666Z,101500.46
2023-02-22T21:58:31.805Z,101507.39
2023-02-22T22:01:11.073Z,101507.63
2023-02-22T22:03:44.614Z,101506.00
2023-02-22T22:06:21.355Z,101507.31
2023-02-22T22:08:54.838Z,101506.61
2023-02-22T22:11:27.665Z,101511.41
2023-02-22T22:14:03.292Z,101511.79
2023-02-22T22:16:40.354Z,101511.78
2023-02-22T22:25:41.093Z,101506.49
2023-02-22T22:28:20.293Z,101506.30
2023-02-22T22:30:58.554Z,101504.36
2023-02-22T22:33:31.257Z,101504.59
2023-02-22T22:36:04.823Z,101499.12
2023-02-22T22:38:43.282Z,101496.20
2023-02-22T22:41:20.473Z,101499.41
2023-02-22T22:43:54.267Z,101498.91
2023-02-22T22:46:36.239Z,101495.77
2023-02-22T22:49:10.645Z,101498.68
